createdAt,value
2023-05-04T00:01:11.507Z,45.86
2023-05-04T00:06:13.349Z,45.49
2023-05-04T00:11:15.182Z,45.06
2023-05-04T00:16:17.073Z,45.63
2023-05-04T00:21:18.859Z,46.01
2023-05-04T00:26:21.216Z,46.87
2023-05-04T00:31:23.734Z,46.55
2023-05-04T00:36:25.869Z,46.33
2023-05-04T00:41:27.765Z,46.57
2023-05-04T00:46:30.099Z,46.25
2023-05-04T00:51:33.421Z,45.48
2023-05-04T00:56:41.232Z,45.37
2023-05-04T01:01:43.195Z,45.58
2023-05-04T01:06:52.796Z,45.20
2023-05-04T01:12:08.343Z,45.79
2023-05-04T01:17:11.952Z,45.78
2023-05-04T01:22:13.876Z,45.54
2023-05-04T01:27:23.319Z,45.54
2023-05-04T01:32:28.535Z,45.13
2023-05-04T01:37:33.060Z,45.75
2023-05-04T01:42:35.267Z,44.68
2023-05-04T01:47:37.075Z,45.54
2023-05-04T01:52:40.000Z,45.53
2023-05-04T01:57:41.790Z,45.20
2023-05-04T02:02:43.918Z,45.04
2023-05-04T02:07:49.524Z,44.96
2023-05-04T02:12:52.305Z,45.82
2023-05-04T02:17:54.241Z,45.70
2023-05-04T02:22:56.271Z,45.92
2023-05-04T02:27:58.055Z,45.49
2023-05-04T02:32:59.914Z,45.31
2023-05-04T02:38:01.808Z,45.62
2023-05-04T02:43:03.636Z,45.37
2023-05-04T02:48:05.645Z,45.42
2023-05-04T02:53:07.447Z,45.52
2023-05-04T02:58:09.268Z,46.12
2023-05-04T03:03:12.546Z,46.39
2023-05-04T03:08:14.386Z,46.18
2023-05-04T03:13:16.799Z,46.27
2023-05-04T03:18:18.849Z,46.22
2023-05-04T03:23:23.028Z,46.59
2023-05-04T03:28:25.184Z,46.36
2023-05-04T03:33:27.043Z,45.87
2023-05-04T03:38:31.831Z,46.13
2023-05-04T03:43:34.360Z,46.61
2023-05-04T03:48:36.564Z,46.55
2023-05-04T03:53:41.736Z,46.42
2023-05-04T03:58:44.721Z,46.42
2023-05-04T04:03:49.722Z,46.46
2023-05-04T04:08:53.962Z,46.26
2023-05-04T04:13:56.029Z,46.27
2023-05-04T04:18:58.248Z,46.04
2023-05-04T04:24:00.000Z,45.57
2023-05-04T04:29:02.338Z,46.28
2023-05-04T04:34:04.189Z,45.55
2023-05-04T04:39:06.401Z,45.51
2023-05-04T04:44:08.185Z,45.32
2023-05-04T04:49:10.258Z,45.41
2023-05-04T04:54:12.022Z,45.36
2023-05-04T04:59:14.159Z,45.39
2023-05-04T05:04:16.100Z,45.64
2023-05-04T05:09:18.000Z,45.48
2023-05-04T05:14:19.749Z,45.73
2023-05-04T05:19:21.520Z,45.60
2023-05-04T05:24:23.453Z,45.63
2023-05-04T05:29:25.473Z,45.45
2023-05-04T05:34:27.388Z,45.21
2023-05-04T05:39:29.397Z,45.27
2023-05-04T05:44:31.384Z,45.30
2023-05-04T05:49:33.285Z,44.95
2023-05-04T05:54:35.426Z,44.99
2023-05-04T05:59:37.236Z,44.97
2023-05-04T06:04:39.396Z,44.84
2023-05-04T06:09:41.494Z,44.57
2023-05-04T06:14:43.722Z,44.45
2023-05-04T06:19:48.096Z,44.26
2023-05-04T06:24:51.368Z,43.70
2023-05-04T06:29:53.158Z,43.44
2023-05-04T06:34:59.530Z,43.16
2023-05-04T06:40:01.316Z,42.92
2023-05-04T06:45:03.332Z,42.55
2023-05-04T06:50:12.173Z,42.44
2023-05-04T06:55:14.032Z,42.13
2023-05-04T07:00:15.984Z,42.06
2023-05-04T07:05:17.881Z,42.07
2023-05-04T07:10:19.735Z,41.74
2023-05-04T07:15:21.706Z,41.47
2023-05-04T07:20:25.858Z,41.43
2023-05-04T07:25:28.957Z,40.89
2023-05-04T07:30:30.846Z,40.87
2023-05-04T07:35:32.627Z,40.78
2023-05-04T07:40:34.533Z,40.35
2023-05-04T07:45:36.394Z,40.12
2023-05-04T07:50:38.244Z,40.02
2023-05-04T07:55:40.144Z,39.30
2023-05-04T08:00:41.980Z,38.70
2023-05-04T08:05:43.846Z,38.32
2023-05-04T08:10:45.730Z,37.43
2023-05-04T08:15:47.559Z,36.00
2023-05-04T08:20:49.446Z,35.60
2023-05-04T08:25:52.458Z,35.59
2023-05-04T08:30:54.288Z,34.92
2023-05-04T08:35:56.350Z,34.32
2023-05-04T08:40:58.234Z,33.65
2023-05-04T08:46:00.236Z,33.25
2023-05-04T08:51:04.513Z,33.33
2023-05-04T08:56:09.610Z,32.58
2023-05-04T09:01:12.399Z,32.81
2023-05-04T09:06:14.870Z,32.56
2023-05-04T09:11:17.252Z,31.98
2023-05-04T09:16:20.185Z,31.98
2023-05-04T09:21:30.220Z,31.25
2023-05-04T09:26:33.079Z,30.82
2023-05-04T09:31:52.478Z,30.60
2023-05-04T09:37:02.124Z,30.77
2023-05-04T09:42:05.861Z,30.50
2023-05-04T09:47:08.547Z,30.29
2023-05-04T09:52:12.060Z,30.34
2023-05-04T09:57:15.557Z,30.16
2023-05-04T10:02:22.494Z,30.03
2023-05-04T10:07:25.302Z,30.21
2023-05-04T10:12:27.686Z,29.97
2023-05-04T10:17:47.351Z,29.87
2023-05-04T10:23:23.674Z,29.44
2023-05-04T10:28:57.085Z,29.31
2023-05-04T10:33:58.929Z,29.18
2023-05-04T10:39:01.504Z,29.11
2023-05-04T10:44:06.734Z,28.76
2023-05-04T10:49:17.913Z,28.62
2023-05-04T10:54:20.067Z,28.56
2023-05-04T10:59:22.033Z,28.28
2023-05-04T11:04:24.624Z,28.39
2023-05-04T11:09:28.284Z,28.38
2023-05-04T11:14:30.404Z,27.87
2023-05-04T11:19:33.603Z,27.67
2023-05-04T11:24:43.553Z,27.45
2023-05-04T11:30:06.048Z,27.42
2023-05-04T11:35:09.794Z,27.07
2023-05-04T11:40:14.204Z,27.02
2023-05-04T11:45:22.186Z,26.64
2023-05-04T11:50:25.328Z,26.52
2023-05-04T11:55:31.998Z,26.24
2023-05-04T12:00:40.390Z,26.38
2023-05-04T12:05:50.936Z,26.17
2023-05-04T12:11:08.126Z,26.78
2023-05-04T12:16:18.449Z,26.47
2023-05-04T12:21:23.507Z,27.02
2023-05-04T12:26:26.282Z,26.52
2023-05-04T12:31:28.765Z,26.44
2023-05-04T12:36:30.780Z,26.06
2023-05-04T12:41:32.699Z,26.01
2023-05-04T12:46:34.630Z,25.84
2023-05-04T12:51:36.884Z,25.36
2023-05-04T12:56:39.865Z,25.17
2023-05-04T13:01:41.806Z,25.16
2023-05-04T13:06:44.287Z,24.71
2023-05-04T13:11:47.631Z,24.47
2023-05-04T13:16:51.040Z,24.56
2023-05-04T13:21:52.937Z,24.15
2023-05-04T13:26:54.759Z,24.14
2023-05-04T13:31:57.391Z,24.41
2023-05-04T13:36:59.246Z,24.21
2023-05-04T13:42:01.032Z,23.80
2023-05-04T13:47:03.732Z,23.86
2023-05-04T13:52:06.240Z,23.67
2023-05-04T13:57:08.037Z,24.05
2023-05-04T14:02:09.861Z,23.82
2023-05-04T14:07:11.676Z,23.64
2023-05-04T14:12:13.452Z,23.92
2023-05-04T14:17:15.244Z,23.96
2023-05-04T14:22:17.277Z,24.08
2023-05-04T14:27:21.112Z,23.74
2023-05-04T14:32:23.247Z,23.66
2023-05-04T14:37:25.077Z,23.88
2023-05-04T14:42:27.020Z,24.11
2023-05-04T14:47:29.167Z,23.91
2023-05-04T14:52:31.195Z,24.16
2023-05-04T14:57:33.086Z,24.14
2023-05-04T15:02:35.890Z,24.25
2023-05-04T15:07:37.893Z,24.28
2023-05-04T15:12:40.248Z,24.25
2023-05-04T15:17:42.266Z,24.31
2023-05-04T15:22:52.220Z,24.52
2023-05-04T15:27:55.522Z,24.52
2023-05-04T15:32:57.528Z,24.33
2023-05-04T15:37:59.761Z,24.09
2023-05-04T15:43:01.544Z,24.08
2023-05-04T15:48:03.628Z,24.32
2023-05-04T15:53:05.452Z,24.63
2023-05-04T15:58:07.724Z,24.33
2023-05-04T16:03:09.567Z,24.34
2023-05-04T16:08:11.617Z,24.27
2023-05-04T16:13:13.511Z,24.19
2023-05-04T16:18:15.512Z,24.31
2023-05-04T16:23:18.460Z,24.31
2023-05-04T16:28:20.366Z,24.50
2023-05-04T16:33:22.179Z,24.53
2023-05-04T16:38:24.164Z,24.83
2023-05-04T16:43:26.114Z,24.58
2023-05-04T16:48:27.926Z,24.89
2023-05-04T16:53:29.696Z,25.56
2023-05-04T16:58:31.479Z,26.29
2023-05-04T17:03:33.293Z,26.79
2023-05-04T17:08:35.114Z,27.05
2023-05-04T17:13:37.296Z,27.41
2023-05-04T17:18:39.077Z,28.05
2023-05-04T17:23:41.129Z,27.96
2023-05-04T17:28:42.953Z,28.02
2023-05-04T17:33:44.751Z,28.10
2023-05-04T17:38:46.574Z,28.33
2023-05-04T17:43:50.244Z,28.31
2023-05-04T17:48:54.588Z,28.28
2023-05-04T17:53:56.501Z,28.46
2023-05-04T17:58:58.783Z,28.20
2023-05-04T18:04:03.295Z,28.38
2023-05-04T18:09:05.145Z,28.29
2023-05-04T18:14:07.190Z,28.49
2023-05-04T18:19:09.112Z,28.67
2023-05-04T18:24:10.918Z,29.06
2023-05-04T18:34:19.427Z,29.49
2023-05-04T18:39:21.201Z,29.48
2023-05-04T18:44:23.091Z,29.42
2023-05-04T18:49:25.044Z,29.36
2023-05-04T18:54:30.163Z,29.27
2023-05-04T18:59:33.972Z,29.39
2023-05-04T19:04:35.821Z,29.29
2023-05-04T19:09:37.948Z,29.26
2023-05-04T19:14:40.672Z,29.47
2023-05-04T19:19:42.480Z,29.33
2023-05-04T19:24:44.546Z,29.59
2023-05-04T19:29:47.242Z,29.88
2023-05-04T19:34:48.985Z,30.13
2023-05-04T19:39:51.050Z,30.30
2023-05-04T19:44:53.285Z,30.83
2023-05-04T19:49:55.301Z,31.20
2023-05-04T19:54:57.092Z,31.36
2023-05-04T19:59:59.324Z,31.48
2023-05-04T20:05:01.192Z,31.56
2023-05-04T20:10:03.469Z,31.36
2023-05-04T20:15:06.666Z,31.25
2023-05-04T20:20:09.831Z,31.18
2023-05-04T20:25:12.014Z,31.11
2023-05-04T20:30:13.916Z,31.21
2023-05-04T20:35:16.524Z,31.30
2023-05-04T20:40:18.379Z,31.60
2023-05-04T20:45:20.807Z,31.09
2023-05-04T20:50:23.149Z,31.17
2023-05-04T20:55:24.945Z,30.72
2023-05-04T21:00:27.205Z,30.60
2023-05-04T21:05:29.006Z,30.66
2023-05-04T21:10:30.876Z,30.70
2023-05-04T21:15:32.724Z,31.21
2023-05-04T21:20:34.509Z,31.21
2023-05-04T21:25:36.393Z,31.45
2023-05-04T21:30:42.957Z,31.84
2023-05-04T21:35:45.086Z,32.17
2023-05-04T21:40:46.977Z,32.26
2023-05-04T21:45:48.726Z,32.61
2023-05-04T21:50:50.490Z,32.56
2023-05-04T21:55:52.524Z,32.56
2023-05-04T22:00:55.329Z,32.80
2023-05-04T22:06:00.595Z,33.06
2023-05-04T22:11:02.548Z,33.50
2023-05-04T22:16:04.630Z,33.82
2023-05-04T22:21:06.591Z,33.96
2023-05-04T22:26:08.417Z,34.03
2023-05-04T22:31:10.506Z,34.11
2023-05-04T22:36:12.669Z,34.25
2023-05-04T22:41:15.083Z,33.93
2023-05-04T22:46:17.726Z,34.40
2023-05-04T22:51:19.508Z,34.40
2023-05-04T22:56:21.415Z,34.69
2023-05-04T23:01:23.558Z,34.88
2023-05-04T23:06:25.397Z,35.07
2023-05-04T23:11:27.292Z,35.01
2023-05-04T23:16:29.210Z,35.22
2023-05-04T23:21:31.553Z,35.10
2023-05-04T23:26:33.431Z,35.10
2023-05-04T23:31:35.256Z,35.40
2023-05-04T23:36:37.748Z,35.58
2023-05-04T23:41:39.539Z,35.75
2023-05-04T23:46:41.423Z,35.69
2023-05-04T23:51:43.349Z,36.23
2023-05-04T23:56:45.200Z,36.43
